sensor_id;sensor_type;location;lat;lon;timestamp;temperature;humidity
22471;DHT22;11402;51.374;6.594;2022-08-24T00:02:17;20.00;99.90
22471;DHT22;11402;51.374;6.594;2022-08-24T00:04:43;20.10;99.90
22471;DHT22;11402;51.374;6.594;2022-08-24T00:07:09;20.00;99.90
22471;DHT22;11402;51.374;6.594;2022-08-24T00:09:34;19.90;99.90
22471;DHT22;11402;51.374;6.594;2022-08-24T00:12:03;19.80;99.90
22471;DHT22;11402;51.374;6.594;2022-08-24T00:14:29;19.70;99.90
22471;DHT22;11402;51.374;6.594;2022-08-24T00:16:55;19.80;99.90
22471;DHT22;11402;51.374;6.594;2022-08-24T00:19:22;19.80;99.90
22471;DHT22;11402;51.374;6.594;2022-08-24T00:21:47;19.80;99.90
22471;DHT22;11402;51.374;6.594;2022-08-24T00:24:13;19.80;99.90
22471;DHT22;11402;51.374;6.594;2022-08-24T00:26:39;19.80;99.90
22471;DHT22;11402;51.374;6.594;2022-08-24T00:29:05;19.80;99.90
22471;DHT22;11402;51.374;6.594;2022-08-24T00:31:31;19.70;99.90
22471;DHT22;11402;51.374;6.594;2022-08-24T00:33:56;19.60;99.90
22471;DHT22;11402;51.374;6.594;2022-08-24T00:36:23;19.70;99.90
22471;DHT22;11402;51.374;6.594;2022-08-24T00:38:49;19.60;99.90
22471;DHT22;11402;51.374;6.594;2022-08-24T00:41:15;19.60;99.90
22471;DHT22;11402;51.374;6.594;2022-08-24T00:43:56;19.60;99.90
22471;DHT22;11402;51.374;6.594;2022-08-24T00:46:27;19.70;99.90
22471;DHT22;11402;51.374;6.594;2022-08-24T00:49:03;19.60;99.90
22471;DHT22;11402;51.374;6.594;2022-08-24T00:51:34;19.60;99.90
22471;DHT22;11402;51.374;6.594;2022-08-24T00:54:06;19.60;99.90
22471;DHT22;11402;51.374;6.594;2022-08-24T00:56:40;19.60;99.90
22471;DHT22;11402;51.374;6.594;2022-08-24T00:59:14;19.60;99.90
22471;DHT22;11402;51.374;6.594;2022-08-24T01:01:41;19.50;99.90
22471;DHT22;11402;51.374;6.594;2022-08-24T01:04:12;19.50;99.90
22471;DHT22;11402;51.374;6.594;2022-08-24T01:06:41;19.50;99.90
22471;DHT22;11402;51.374;6.594;2022-08-24T01:09:07;19.50;99.90
22471;DHT22;11402;51.374;6.594;2022-08-24T01:11:32;19.50;99.90
22471;DHT22;11402;51.374;6.594;2022-08-24T01:13:58;19.40;99.90
22471;DHT22;11402;51.374;6.594;2022-08-24T01:16:25;19.40;99.90
22471;DHT22;11402;51.374;6.594;2022-08-24T01:19:35;19.50;99.90
22471;DHT22;11402;51.374;6.594;2022-08-24T01:22:24;19.40;99.90
22471;DHT22;11402;51.374;6.594;2022-08-24T01:24:55;19.20;99.90
22471;DHT22;11402;51.374;6.594;2022-08-24T01:27:21;19.30;99.90
22471;DHT22;11402;51.374;6.594;2022-08-24T01:29:47;19.30;99.90
22471;DHT22;11402;51.374;6.594;2022-08-24T01:32:14;19.30;99.90
22471;DHT22;11402;51.374;6.594;2022-08-24T01:34:40;19.30;99.90
22471;DHT22;11402;51.374;6.594;2022-08-24T01:37:09;19.30;99.90
22471;DHT22;11402;51.374;6.594;2022-08-24T01:39:41;19.20;99.90
22471;DHT22;11402;51.374;6.594;2022-08-24T01:42:08;19.10;99.90
22471;DHT22;11402;51.374;6.594;2022-08-24T01:44:36;19.20;99.90
22471;DHT22;11402;51.374;6.594;2022-08-24T01:47:04;19.20;99.90
22471;DHT22;11402;51.374;6.594;2022-08-24T01:49:32;19.20;99.90
22471;DHT22;11402;51.374;6.594;2022-08-24T01:51:58;19.10;99.90
22471;DHT22;11402;51.374;6.594;2022-08-24T01:54:25;19.00;99.90
22471;DHT22;11402;51.374;6.594;2022-08-24T01:56:51;19.00;99.90
22471;DHT22;11402;51.374;6.594;2022-08-24T01:59:17;19.00;99.90
22471;DHT22;11402;51.374;6.594;2022-08-24T02:01:49;19.10;99.90
22471;DHT22;11402;51.374;6.594;2022-08-24T02:04:16;19.00;99.90
22471;DHT22;11402;51.374;6.594;2022-08-24T02:06:41;19.10;99.90
22471;DHT22;11402;51.374;6.594;2022-08-24T02:09:09;19.10;99.90
22471;DHT22;11402;51.374;6.594;2022-08-24T02:11:36;19.00;99.90
22471;DHT22;11402;51.374;6.594;2022-08-24T02:14:02;19.00;99.90
22471;DHT22;11402;51.374;6.594;2022-08-24T02:16:28;18.90;99.90
22471;DHT22;11402;51.374;6.594;2022-08-24T02:18:54;18.90;99.90
22471;DHT22;11402;51.374;6.594;2022-08-24T02:21:20;18.90;99.90
22471;DHT22;11402;51.374;6.594;2022-08-24T02:23:46;18.90;99.90
22471;DHT22;11402;51.374;6.594;2022-08-24T02:26:12;18.80;99.90
22471;DHT22;11402;51.374;6.594;2022-08-24T02:28:39;18.60;99.90
22471;DHT22;11402;51.374;6.594;2022-08-24T02:31:06;18.70;99.90
22471;DHT22;11402;51.374;6.594;2022-08-24T02:33:33;18.80;99.90
22471;DHT22;11402;51.374;6.594;2022-08-24T02:35:59;18.80;99.90
22471;DHT22;11402;51.374;6.594;2022-08-24T02:38:25;18.90;99.90
22471;DHT22;11402;51.374;6.594;2022-08-24T02:40:50;18.90;99.90
22471;DHT22;11402;51.374;6.594;2022-08-24T02:43:16;18.80;99.90
22471;DHT22;11402;51.374;6.594;2022-08-24T02:45:44;18.80;99.90
22471;DHT22;11402;51.374;6.594;2022-08-24T02:48:10;18.80;99.90
22471;DHT22;11402;51.374;6.594;2022-08-24T02:50:40;18.90;99.90
22471;DHT22;11402;51.374;6.594;2022-08-24T02:53:07;18.80;99.90
22471;DHT22;11402;51.374;6.594;2022-08-24T02:55:33;18.80;99.90
22471;DHT22;11402;51.374;6.594;2022-08-24T02:57:59;18.70;99.90
22471;DHT22;11402;51.374;6.594;2022-08-24T03:00:25;18.70;99.90
22471;DHT22;11402;51.374;6.594;2022-08-24T03:02:52;18.70;99.90
22471;DHT22;11402;51.374;6.594;2022-08-24T03:05:18;18.70;99.90
22471;DHT22;11402;51.374;6.594;2022-08-24T03:07:45;18.70;99.90
22471;DHT22;11402;51.374;6.594;2022-08-24T03:10:11;18.70;99.90
22471;DHT22;11402;51.374;6.594;2022-08-24T03:12:37;18.70;99.90
22471;DHT22;11402;51.374;6.594;2022-08-24T03:15:04;18.70;99.90
22471;DHT22;11402;51.374;6.594;2022-08-24T03:17:30;18.60;99.90
22471;DHT22;11402;51.374;6.594;2022-08-24T03:19:58;18.60;99.90
22471;DHT22;11402;51.374;6.594;2022-08-24T03:22:25;18.60;99.90
22471;DHT22;11402;51.374;6.594;2022-08-24T03:24:51;18.60;99.90
22471;DHT22;11402;51.374;6.594;2022-08-24T03:27:16;18.60;99.90
22471;DHT22;11402;51.374;6.594;2022-08-24T03:29:42;18.50;99.90
22471;DHT22;11402;51.374;6.594;2022-08-24T03:32:07;18.40;99.90
22471;DHT22;11402;51.374;6.594;2022-08-24T03:34:33;18.50;99.90
22471;DHT22;11402;51.374;6.594;2022-08-24T03:36:59;18.40;99.90
22471;DHT22;11402;51.374;6.594;2022-08-24T03:39:24;18.40;99.90
22471;DHT22;11402;51.374;6.594;2022-08-24T03:41:50;18.40;99.90
22471;DHT22;11402;51.374;6.594;2022-08-24T03:44:16;18.30;99.90
22471;DHT22;11402;51.374;6.594;2022-08-24T03:46:41;18.40;99.90
22471;DHT22;11402;51.374;6.594;2022-08-24T03:49:08;18.30;99.90
22471;DHT22;11402;51.374;6.594;2022-08-24T03:51:35;18.30;99.90
22471;DHT22;11402;51.374;6.594;2022-08-24T03:54:02;18.30;99.90
22471;DHT22;11402;51.374;6.594;2022-08-24T03:56:28;18.30;99.90
22471;DHT22;11402;51.374;6.594;2022-08-24T03:58:54;18.30;99.90
22471;DHT22;11402;51.374;6.594;2022-08-24T04:01:20;18.20;99.90
22471;DHT22;11402;51.374;6.594;2022-08-24T04:03:47;18.30;99.90
22471;DHT22;11402;51.374;6.594;2022-08-24T04:06:15;18.30;99.90
22471;DHT22;11402;51.374;6.594;2022-08-24T04:08:42;18.20;99.90
22471;DHT22;11402;51.374;6.594;2022-08-24T04:11:13;18.20;99.90
22471;DHT22;11402;51.374;6.594;2022-08-24T04:13:40;18.20;99.90
22471;DHT22;11402;51.374;6.594;2022-08-24T04:16:16;18.10;99.90
22471;DHT22;11402;51.374;6.594;2022-08-24T04:18:42;18.20;99.90
22471;DHT22;11402;51.374;6.594;2022-08-24T04:21:19;18.10;99.90
22471;DHT22;11402;51.374;6.594;2022-08-24T04:23:46;18.20;99.90
22471;DHT22;11402;51.374;6.594;2022-08-24T04:26:12;18.10;99.90
22471;DHT22;11402;51.374;6.594;2022-08-24T04:28:38;18.20;99.90
22471;DHT22;11402;51.374;6.594;2022-08-24T04:31:04;18.20;99.90
22471;DHT22;11402;51.374;6.594;2022-08-24T04:33:30;18.20;99.90
22471;DHT22;11402;51.374;6.594;2022-08-24T04:35:56;18.10;99.90
22471;DHT22;11402;51.374;6.594;2022-08-24T04:38:22;17.90;99.90
22471;DHT22;11402;51.374;6.594;2022-08-24T04:40:48;18.00;99.90
22471;DHT22;11402;51.374;6.594;2022-08-24T04:43:14;18.00;99.90
22471;DHT22;11402;51.374;6.594;2022-08-24T04:45:42;18.10;99.90
22471;DHT22;11402;51.374;6.594;2022-08-24T04:48:09;18.00;99.90
22471;DHT22;11402;51.374;6.594;2022-08-24T04:50:36;18.10;99.90
22471;DHT22;11402;51.374;6.594;2022-08-24T04:53:03;18.30;99.90
22471;DHT22;11402;51.374;6.594;2022-08-24T04:55:28;18.20;99.90
22471;DHT22;11402;51.374;6.594;2022-08-24T04:57:54;18.20;99.90
22471;DHT22;11402;51.374;6.594;2022-08-24T05:00:20;18.10;99.90
22471;DHT22;11402;51.374;6.594;2022-08-24T05:02:45;18.10;99.90
22471;DHT22;11402;51.374;6.594;2022-08-24T05:05:11;18.10;99.90
22471;DHT22;11402;51.374;6.594;2022-08-24T05:07:37;18.20;99.90
22471;DHT22;11402;51.374;6.594;2022-08-24T05:10:04;18.10;99.90
22471;DHT22;11402;51.374;6.594;2022-08-24T05:12:30;18.10;99.90
22471;DHT22;11402;51.374;6.594;2022-08-24T05:14:56;18.10;99.90
22471;DHT22;11402;51.374;6.594;2022-08-24T05:17:24;18.10;99.90
22471;DHT22;11402;51.374;6.594;2022-08-24T05:19:50;18.00;99.90
22471;DHT22;11402;51.374;6.594;2022-08-24T05:22:16;18.10;99.90
22471;DHT22;11402;51.374;6.594;2022-08-24T05:24:41;18.20;99.90
22471;DHT22;11402;51.374;6.594;2022-08-24T05:27:07;18.30;99.90
22471;DHT22;11402;51.374;6.594;2022-08-24T05:29:33;18.30;99.90
22471;DHT22;11402;51.374;6.594;2022-08-24T05:31:59;18.40;99.90
22471;DHT22;11402;51.374;6.594;2022-08-24T05:34:25;18.40;99.90
22471;DHT22;11402;51.374;6.594;2022-08-24T05:36:51;18.40;99.90
22471;DHT22;11402;51.374;6.594;2022-08-24T05:39:16;18.70;99.90
22471;DHT22;11402;51.374;6.594;2022-08-24T05:41:43;18.80;99.90
22471;DHT22;11402;51.374;6.594;2022-08-24T05:44:09;18.80;99.90
22471;DHT22;11402;51.374;6.594;2022-08-24T05:46:35;18.70;99.90
22471;DHT22;11402;51.374;6.594;2022-08-24T05:49:01;18.60;99.90
22471;DHT22;11402;51.374;6.594;2022-08-24T05:51:27;18.60;99.90
22471;DHT22;11402;51.374;6.594;2022-08-24T05:53:54;18.50;99.90
22471;DHT22;11402;51.374;6.594;2022-08-24T05:56:20;18.60;99.90
22471;DHT22;11402;51.374;6.594;2022-08-24T05:58:47;18.60;99.90
22471;DHT22;11402;51.374;6.594;2022-08-24T06:01:21;18.60;99.90
22471;DHT22;11402;51.374;6.594;2022-08-24T06:03:48;18.70;99.90
22471;DHT22;11402;51.374;6.594;2022-08-24T06:06:15;18.80;99.90
22471;DHT22;11402;51.374;6.594;2022-08-24T06:08:44;19.00;99.90
22471;DHT22;11402;51.374;6.594;2022-08-24T06:11:11;19.20;99.90
22471;DHT22;11402;51.374;6.594;2022-08-24T06:13:37;19.50;99.90
22471;DHT22;11402;51.374;6.594;2022-08-24T06:16:09;19.60;99.90
22471;DHT22;11402;51.374;6.594;2022-08-24T06:18:36;19.70;99.90
22471;DHT22;11402;51.374;6.594;2022-08-24T06:21:10;19.90;99.90
22471;DHT22;11402;51.374;6.594;2022-08-24T06:23:37;20.00;99.90
22471;DHT22;11402;51.374;6.594;2022-08-24T06:26:04;20.20;99.90
22471;DHT22;11402;51.374;6.594;2022-08-24T06:28:49;20.30;99.90
22471;DHT22;11402;51.374;6.594;2022-08-24T06:31:15;20.40;99.90
22471;DHT22;11402;51.374;6.594;2022-08-24T06:33:40;20.50;99.90
22471;DHT22;11402;51.374;6.594;2022-08-24T06:36:06;20.80;99.90
22471;DHT22;11402;51.374;6.594;2022-08-24T06:38:32;21.00;99.90
22471;DHT22;11402;51.374;6.594;2022-08-24T06:40:58;21.00;99.90
22471;DHT22;11402;51.374;6.594;2022-08-24T06:43:23;21.00;99.90
22471;DHT22;11402;51.374;6.594;2022-08-24T06:45:50;21.00;99.90
22471;DHT22;11402;51.374;6.594;2022-08-24T06:48:16;21.00;99.90
22471;DHT22;11402;51.374;6.594;2022-08-24T06:50:42;21.10;99.90
22471;DHT22;11402;51.374;6.594;2022-08-24T06:53:08;21.30;99.90
22471;DHT22;11402;51.374;6.594;2022-08-24T06:55:34;21.40;99.90
22471;DHT22;11402;51.374;6.594;2022-08-24T06:57:59;21.50;99.90
22471;DHT22;11402;51.374;6.594;2022-08-24T07:00:26;21.60;99.90
22471;DHT22;11402;51.374;6.594;2022-08-24T07:02:52;21.70;99.90
22471;DHT22;11402;51.374;6.594;2022-08-24T07:05:18;21.70;99.90
22471;DHT22;11402;51.374;6.594;2022-08-24T07:07:43;21.80;99.90
22471;DHT22;11402;51.374;6.594;2022-08-24T07:10:09;21.90;99.90
22471;DHT22;11402;51.374;6.594;2022-08-24T07:12:35;22.10;99.90
22471;DHT22;11402;51.374;6.594;2022-08-24T07:15:03;22.20;99.90
22471;DHT22;11402;51.374;6.594;2022-08-24T07:17:28;22.20;99.90
22471;DHT22;11402;51.374;6.594;2022-08-24T07:19:54;22.30;99.90
22471;DHT22;11402;51.374;6.594;2022-08-24T07:22:20;22.40;99.90
22471;DHT22;11402;51.374;6.594;2022-08-24T07:24:45;22.50;99.90
22471;DHT22;11402;51.374;6.594;2022-08-24T07:27:11;22.70;99.90
22471;DHT22;11402;51.374;6.594;2022-08-24T07:29:38;22.80;99.90
22471;DHT22;11402;51.374;6.594;2022-08-24T07:32:04;22.70;99.90
22471;DHT22;11402;51.374;6.594;2022-08-24T07:34:30;22.70;99.90
22471;DHT22;11402;51.374;6.594;2022-08-24T07:36:56;22.70;99.90
22471;DHT22;11402;51.374;6.594;2022-08-24T07:39:25;22.80;99.90
22471;DHT22;11402;51.374;6.594;2022-08-24T07:41:50;22.90;99.90
22471;DHT22;11402;51.374;6.594;2022-08-24T07:44:16;22.90;99.90
22471;DHT22;11402;51.374;6.594;2022-08-24T07:46:42;23.10;99.90
22471;DHT22;11402;51.374;6.594;2022-08-24T07:49:09;23.20;99.90
22471;DHT22;11402;51.374;6.594;2022-08-24T07:51:35;23.20;99.90
22471;DHT22;11402;51.374;6.594;2022-08-24T07:54:02;23.30;99.90
22471;DHT22;11402;51.374;6.594;2022-08-24T07:56:28;23.40;99.90
22471;DHT22;11402;51.374;6.594;2022-08-24T07:58:54;23.50;99.90
22471;DHT22;11402;51.374;6.594;2022-08-24T08:01:20;23.50;99.90
22471;DHT22;11402;51.374;6.594;2022-08-24T08:03:46;23.60;99.90
22471;DHT22;11402;51.374;6.594;2022-08-24T08:06:12;23.70;99.90
22471;DHT22;11402;51.374;6.594;2022-08-24T08:08:39;23.70;99.90
22471;DHT22;11402;51.374;6.594;2022-08-24T08:11:05;23.90;99.90
22471;DHT22;11402;51.374;6.594;2022-08-24T08:13:33;23.80;99.90
22471;DHT22;11402;51.374;6.594;2022-08-24T08:16:00;24.10;99.90
22471;DHT22;11402;51.374;6.594;2022-08-24T08:18:26;24.00;99.90
22471;DHT22;11402;51.374;6.594;2022-08-24T08:20:53;24.10;99.90
22471;DHT22;11402;51.374;6.594;2022-08-24T08:23:19;24.20;99.90
22471;DHT22;11402;51.374;6.594;2022-08-24T08:26:04;24.20;99.90
22471;DHT22;11402;51.374;6.594;2022-08-24T08:28:30;24.40;99.90
22471;DHT22;11402;51.374;6.594;2022-08-24T08:31:01;24.40;99.90
22471;DHT22;11402;51.374;6.594;2022-08-24T08:33:26;24.50;99.90
22471;DHT22;11402;51.374;6.594;2022-08-24T08:35:59;24.40;99.90
22471;DHT22;11402;51.374;6.594;2022-08-24T08:38:26;24.50;99.90
22471;DHT22;11402;51.374;6.594;2022-08-24T08:43:42;24.70;99.90
22471;DHT22;11402;51.374;6.594;2022-08-24T08:46:12;24.60;99.90
22471;DHT22;11402;51.374;6.594;2022-08-24T08:54:31;25.10;99.90
22471;DHT22;11402;51.374;6.594;2022-08-24T09:02:47;25.40;99.90
22471;DHT22;11402;51.374;6.594;2022-08-24T09:08:25;25.40;99.90
22471;DHT22;11402;51.374;6.594;2022-08-24T09:14:15;25.50;99.90
22471;DHT22;11402;51.374;6.594;2022-08-24T09:22:21;25.60;99.90
22471;DHT22;11402;51.374;6.594;2022-08-24T09:24:57;25.70;99.90
22471;DHT22;11402;51.374;6.594;2022-08-24T09:30:27;25.90;99.90
22471;DHT22;11402;51.374;6.594;2022-08-24T09:33:10;25.90;99.90
22471;DHT22;11402;51.374;6.594;2022-08-24T09:41:42;26.20;99.90
22471;DHT22;11402;51.374;6.594;2022-08-24T09:44:33;26.40;99.90
22471;DHT22;11402;51.374;6.594;2022-08-24T10:00:46;26.90;99.90
22471;DHT22;11402;51.374;6.594;2022-08-24T10:06:31;27.10;99.90
22471;DHT22;11402;51.374;6.594;2022-08-24T10:14:55;27.10;99.90
22471;DHT22;11402;51.374;6.594;2022-08-24T10:25:54;27.50;99.90
22471;DHT22;11402;51.374;6.594;2022-08-24T10:31:55;27.50;99.90
22471;DHT22;11402;51.374;6.594;2022-08-24T10:34:41;27.30;99.90
22471;DHT22;11402;51.374;6.594;2022-08-24T10:37:36;27.50;99.90
22471;DHT22;11402;51.374;6.594;2022-08-24T10:53:35;27.40;99.90
22471;DHT22;11402;51.374;6.594;2022-08-24T10:56:13;27.70;99.90
22471;DHT22;11402;51.374;6.594;2022-08-24T11:06:32;27.60;99.90
22471;DHT22;11402;51.374;6.594;2022-08-24T11:14:09;28.10;99.90
22471;DHT22;11402;51.374;6.594;2022-08-24T11:19:32;28.20;99.90
22471;DHT22;11402;51.374;6.594;2022-08-24T11:22:03;28.40;99.90
22471;DHT22;11402;51.374;6.594;2022-08-24T11:24:57;28.30;99.90
22471;DHT22;11402;51.374;6.594;2022-08-24T11:27:33;28.30;99.90
22471;DHT22;11402;51.374;6.594;2022-08-24T11:30:43;28.50;99.90
22471;DHT22;11402;51.374;6.594;2022-08-24T11:32:56;28.40;99.90
22471;DHT22;11402;51.374;6.594;2022-08-24T11:38:14;28.80;99.90
22471;DHT22;11402;51.374;6.594;2022-08-24T11:40:42;28.50;99.90
22471;DHT22;11402;51.374;6.594;2022-08-24T11:43:23;29.00;99.90
22471;DHT22;11402;51.374;6.594;2022-08-24T11:51:03;29.00;99.90
22471;DHT22;11402;51.374;6.594;2022-08-24T11:53:56;28.80;99.90
22471;DHT22;11402;51.374;6.594;2022-08-24T11:59:20;29.10;99.90
22471;DHT22;11402;51.374;6.594;2022-08-24T12:04:52;28.60;99.90
22471;DHT22;11402;51.374;6.594;2022-08-24T12:10:13;28.60;99.90
22471;DHT22;11402;51.374;6.594;2022-08-24T12:13:00;28.70;99.90
22471;DHT22;11402;51.374;6.594;2022-08-24T12:20:53;28.90;99.90
22471;DHT22;11402;51.374;6.594;2022-08-24T12:23:37;28.70;99.90
22471;DHT22;11402;51.374;6.594;2022-08-24T12:26:11;28.60;99.90
22471;DHT22;11402;51.374;6.594;2022-08-24T12:28:45;28.90;99.90
22471;DHT22;11402;51.374;6.594;2022-08-24T12:31:42;28.90;99.90
22471;DHT22;11402;51.374;6.594;2022-08-24T12:34:16;28.80;99.90
22471;DHT22;11402;51.374;6.594;2022-08-24T12:39:27;29.00;99.90
22471;DHT22;11402;51.374;6.594;2022-08-24T12:41:57;28.80;99.90
22471;DHT22;11402;51.374;6.594;2022-08-24T12:44:34;29.00;99.90
22471;DHT22;11402;51.374;6.594;2022-08-24T12:47:03;28.90;99.90
22471;DHT22;11402;51.374;6.594;2022-08-24T12:49:43;28.80;99.90
22471;DHT22;11402;51.374;6.594;2022-08-24T13:01:15;28.90;99.90
22471;DHT22;11402;51.374;6.594;2022-08-24T13:03:43;28.80;99.90
22471;DHT22;11402;51.374;6.594;2022-08-24T13:06:41;28.80;99.90
22471;DHT22;11402;51.374;6.594;2022-08-24T13:11:57;28.90;99.90
22471;DHT22;11402;51.374;6.594;2022-08-24T13:14:26;28.90;99.90
22471;DHT22;11402;51.374;6.594;2022-08-24T13:24:54;28.90;99.90
22471;DHT22;11402;51.374;6.594;2022-08-24T13:32:36;29.40;99.90
22471;DHT22;11402;51.374;6.594;2022-08-24T13:40:52;29.40;99.90
22471;DHT22;11402;51.374;6.594;2022-08-24T13:43:39;29.40;99.90
22471;DHT22;11402;51.374;6.594;2022-08-24T13:49:00;29.50;99.90
22471;DHT22;11402;51.374;6.594;2022-08-24T13:51:43;29.60;99.90
22471;DHT22;11402;51.374;6.594;2022-08-24T13:54:32;29.50;99.90
22471;DHT22;11402;51.374;6.594;2022-08-24T13:57:21;29.70;99.90
22471;DHT22;11402;51.374;6.594;2022-08-24T14:19:58;29.10;99.90
22471;DHT22;11402;51.374;6.594;2022-08-24T14:23:27;29.60;99.90
22471;DHT22;11402;51.374;6.594;2022-08-24T14:25:29;29.80;99.90
22471;DHT22;11402;51.374;6.594;2022-08-24T14:36:07;29.70;99.90
22471;DHT22;11402;51.374;6.594;2022-08-24T14:38:53;29.60;99.90
22471;DHT22;11402;51.374;6.594;2022-08-24T14:44:28;29.90;99.90
22471;DHT22;11402;51.374;6.594;2022-08-24T14:47:21;30.00;99.90
22471;DHT22;11402;51.374;6.594;2022-08-24T14:49:57;29.80;99.90
22471;DHT22;11402;51.374;6.594;2022-08-24T14:55:09;29.70;99.90
22471;DHT22;11402;51.374;6.594;2022-08-24T15:08:38;29.70;99.90
22471;DHT22;11402;51.374;6.594;2022-08-24T15:11:25;29.70;99.90
22471;DHT22;11402;51.374;6.594;2022-08-24T15:14:03;29.60;99.90
22471;DHT22;11402;51.374;6.594;2022-08-24T15:22:45;30.00;99.90
22471;DHT22;11402;51.374;6.594;2022-08-24T15:25:34;29.90;99.90
22471;DHT22;11402;51.374;6.594;2022-08-24T15:28:11;30.10;99.90
22471;DHT22;11402;51.374;6.594;2022-08-24T15:30:40;29.90;99.90
22471;DHT22;11402;51.374;6.594;2022-08-24T15:33:15;29.70;99.90
22471;DHT22;11402;51.374;6.594;2022-08-24T15:35:43;29.70;99.90
22471;DHT22;11402;51.374;6.594;2022-08-24T15:38:21;29.70;99.90
22471;DHT22;11402;51.374;6.594;2022-08-24T15:41:01;29.60;99.90
22471;DHT22;11402;51.374;6.594;2022-08-24T15:43:27;29.60;99.90
22471;DHT22;11402;51.374;6.594;2022-08-24T15:45:53;29.60;99.90
22471;DHT22;11402;51.374;6.594;2022-08-24T15:48:21;29.50;99.90
22471;DHT22;11402;51.374;6.594;2022-08-24T15:50:50;29.50;99.90
22471;DHT22;11402;51.374;6.594;2022-08-24T15:53:48;29.50;99.90
22471;DHT22;11402;51.374;6.594;2022-08-24T15:58:46;29.50;99.90
22471;DHT22;11402;51.374;6.594;2022-08-24T16:04:02;29.40;99.90
22471;DHT22;11402;51.374;6.594;2022-08-24T16:09:11;29.40;99.90
22471;DHT22;11402;51.374;6.594;2022-08-24T16:11:43;29.20;99.90
22471;DHT22;11402;51.374;6.594;2022-08-24T16:14:31;29.20;99.90
22471;DHT22;11402;51.374;6.594;2022-08-24T16:16:59;29.20;99.90
22471;DHT22;11402;51.374;6.594;2022-08-24T16:19:30;29.30;99.90
22471;DHT22;11402;51.374;6.594;2022-08-24T16:21:59;29.30;99.90
22471;DHT22;11402;51.374;6.594;2022-08-24T16:24:37;29.30;99.90
22471;DHT22;11402;51.374;6.594;2022-08-24T16:27:09;29.30;99.90
22471;DHT22;11402;51.374;6.594;2022-08-24T16:34:47;29.30;99.90
22471;DHT22;11402;51.374;6.594;2022-08-24T16:37:14;29.20;99.90
22471;DHT22;11402;51.374;6.594;2022-08-24T16:39:41;29.30;99.90
22471;DHT22;11402;51.374;6.594;2022-08-24T16:42:11;29.20;99.90
22471;DHT22;11402;51.374;6.594;2022-08-24T16:44:40;29.20;99.90
22471;DHT22;11402;51.374;6.594;2022-08-24T16:47:08;29.30;99.90
22471;DHT22;11402;51.374;6.594;2022-08-24T16:49:34;29.70;99.90
22471;DHT22;11402;51.374;6.594;2022-08-24T16:52:00;29.50;99.90
22471;DHT22;11402;51.374;6.594;2022-08-24T16:54:28;29.60;99.90
22471;DHT22;11402;51.374;6.594;2022-08-24T16:56:54;29.50;99.90
22471;DHT22;11402;51.374;6.594;2022-08-24T16:59:29;28.90;99.90
22471;DHT22;11402;51.374;6.594;2022-08-24T17:01:56;28.90;99.90
22471;DHT22;11402;51.374;6.594;2022-08-24T17:04:22;29.40;99.90
22471;DHT22;11402;51.374;6.594;2022-08-24T17:06:47;29.50;99.90
22471;DHT22;11402;51.374;6.594;2022-08-24T17:09:16;29.70;99.90
22471;DHT22;11402;51.374;6.594;2022-08-24T17:11:42;29.60;99.90
22471;DHT22;11402;51.374;6.594;2022-08-24T17:14:08;29.50;99.90
22471;DHT22;11402;51.374;6.594;2022-08-24T17:16:34;29.60;99.90
22471;DHT22;11402;51.374;6.594;2022-08-24T17:19:02;29.50;99.90
22471;DHT22;11402;51.374;6.594;2022-08-24T17:21:30;29.60;99.90
22471;DHT22;11402;51.374;6.594;2022-08-24T17:23:55;29.80;99.90
22471;DHT22;11402;51.374;6.594;2022-08-24T17:26:21;29.50;99.90
22471;DHT22;11402;51.374;6.594;2022-08-24T17:28:46;29.60;99.90
22471;DHT22;11402;51.374;6.594;2022-08-24T17:31:12;29.40;99.90
22471;DHT22;11402;51.374;6.594;2022-08-24T17:33:39;29.60;99.90
22471;DHT22;11402;51.374;6.594;2022-08-24T17:36:05;29.60;99.90
22471;DHT22;11402;51.374;6.594;2022-08-24T17:38:33;29.60;99.90
22471;DHT22;11402;51.374;6.594;2022-08-24T17:41:00;29.60;99.90
22471;DHT22;11402;51.374;6.594;2022-08-24T17:43:26;29.50;99.90
22471;DHT22;11402;51.374;6.594;2022-08-24T17:45:51;29.60;99.90
22471;DHT22;11402;51.374;6.594;2022-08-24T17:48:23;29.50;99.90
22471;DHT22;11402;51.374;6.594;2022-08-24T17:50:49;29.40;99.90
22471;DHT22;11402;51.374;6.594;2022-08-24T17:53:15;29.30;99.90
22471;DHT22;11402;51.374;6.594;2022-08-24T17:55:40;29.40;99.90
22471;DHT22;11402;51.374;6.594;2022-08-24T17:58:06;29.60;99.90
22471;DHT22;11402;51.374;6.594;2022-08-24T18:00:32;29.40;99.90
22471;DHT22;11402;51.374;6.594;2022-08-24T18:02:57;29.30;99.90
22471;DHT22;11402;51.374;6.594;2022-08-24T18:05:24;29.20;99.90
22471;DHT22;11402;51.374;6.594;2022-08-24T18:07:52;29.10;99.90
22471;DHT22;11402;51.374;6.594;2022-08-24T18:10:20;29.20;99.90
22471;DHT22;11402;51.374;6.594;2022-08-24T18:12:46;29.60;99.90
22471;DHT22;11402;51.374;6.594;2022-08-24T18:15:12;29.20;99.90
22471;DHT22;11402;51.374;6.594;2022-08-24T18:17:50;28.90;99.90
22471;DHT22;11402;51.374;6.594;2022-08-24T18:20:21;29.00;99.90
22471;DHT22;11402;51.374;6.594;2022-08-24T18:22:49;28.80;99.90
22471;DHT22;11402;51.374;6.594;2022-08-24T18:25:16;28.80;99.90
22471;DHT22;11402;51.374;6.594;2022-08-24T18:27:43;28.70;99.90
22471;DHT22;11402;51.374;6.594;2022-08-24T18:30:23;28.60;99.90
22471;DHT22;11402;51.374;6.594;2022-08-24T18:32:49;28.50;99.90
22471;DHT22;11402;51.374;6.594;2022-08-24T18:35:15;28.50;99.90
22471;DHT22;11402;51.374;6.594;2022-08-24T18:37:41;28.40;99.90
22471;DHT22;11402;51.374;6.594;2022-08-24T18:40:07;28.40;99.90
22471;DHT22;11402;51.374;6.594;2022-08-24T18:42:35;28.20;99.90
22471;DHT22;11402;51.374;6.594;2022-08-24T18:45:01;28.10;99.90
22471;DHT22;11402;51.374;6.594;2022-08-24T18:47:27;28.10;99.90
22471;DHT22;11402;51.374;6.594;2022-08-24T18:49:52;28.10;99.90
22471;DHT22;11402;51.374;6.594;2022-08-24T18:52:18;28.20;99.90
22471;DHT22;11402;51.374;6.594;2022-08-24T18:54:46;28.10;99.90
22471;DHT22;11402;51.374;6.594;2022-08-24T18:57:13;28.10;99.90
22471;DHT22;11402;51.374;6.594;2022-08-24T18:59:39;28.00;99.90
22471;DHT22;11402;51.374;6.594;2022-08-24T19:02:19;28.00;99.90
22471;DHT22;11402;51.374;6.594;2022-08-24T19:05:03;27.80;99.90
22471;DHT22;11402;51.374;6.594;2022-08-24T19:07:33;27.70;99.90
22471;DHT22;11402;51.374;6.594;2022-08-24T19:10:00;27.70;99.90
22471;DHT22;11402;51.374;6.594;2022-08-24T19:12:27;27.70;99.90
22471;DHT22;11402;51.374;6.594;2022-08-24T19:14:55;27.60;99.90
22471;DHT22;11402;51.374;6.594;2022-08-24T19:17:21;27.10;99.90
22471;DHT22;11402;51.374;6.594;2022-08-24T19:19:47;27.60;99.90
22471;DHT22;11402;51.374;6.594;2022-08-24T19:22:13;27.80;99.90
22471;DHT22;11402;51.374;6.594;2022-08-24T19:24:41;27.60;99.90
22471;DHT22;11402;51.374;6.594;2022-08-24T19:27:07;27.40;99.90